Time;durP1;ratioP1;P1;durP2;ratioP2;P2;SDS_P1;SDS_P2;PMS_P1;PMS_P2;Temp;Humidity;BMP_temperature;BMP_pressure;BME280_temperature;BME280_humidity;BME280_pressure;Samples;Min_cycle;Max_cycle;Signal;HPM_P1;HPM_P2
2022/06/24 00:00:46;;;;;;;60.47;3.10;;;;;;;;;;5054027;28;20539;-88
2022/06/24 00:03:17;;;;;;;58.90;2.67;;;;;;;;;;5054617;28;20515;-88
2022/06/24 00:05:44;;;;;;;63.67;3.30;;;;;;;;;;5054340;28;20829;-88
2022/06/24 00:08:12;;;;;;;58.80;2.50;;;;;;;;;;5054952;28;20527;-88
2022/06/24 00:10:40;;;;;;;59.50;2.80;;;;;;;;;;5053992;28;20485;-88
2022/06/24 00:13:08;;;;;;;60.23;3.17;;;;;;;;;;5054204;28;20809;-89
2022/06/24 00:15:37;;;;;;;59.00;2.83;;;;;;;;;;5054589;28;20472;-89
2022/06/24 00:18:13;;;;;;;59.17;2.80;;;;;;;;;;5054719;28;20458;-89
2022/06/24 00:20:43;;;;;;;59.60;3.33;;;;;;;;;;5054415;28;20519;-88
2022/06/24 00:23:10;;;;;;;59.20;2.90;;;;;;;;;;5054321;28;20438;-89
2022/06/24 00:25:38;;;;;;;60.00;3.40;;;;;;;;;;5054173;28;21015;-89
2022/06/24 00:28:07;;;;;;;59.70;3.13;;;;;;;;;;5053825;28;20445;-88
2022/06/24 00:30:39;;;;;;;60.57;3.00;;;;;;;;;;5053720;28;20490;-88
2022/06/24 00:33:10;;;;;;;59.13;3.10;;;;;;;;;;5053256;28;20433;-88
2022/06/24 00:35:39;;;;;;;59.30;2.93;;;;;;;;;;5053763;28;20975;-88
2022/06/24 00:38:21;;;;;;;59.17;3.00;;;;;;;;;;5053582;28;20488;-89
2022/06/24 00:40:49;;;;;;;59.23;3.10;;;;;;;;;;5053992;28;20493;-89
2022/06/24 00:43:20;;;;;;;63.40;3.20;;;;;;;;;;5053844;28;20441;-89
2022/06/24 00:45:50;;;;;;;59.83;2.90;;;;;;;;;;5053479;28;20450;-89
2022/06/24 00:48:17;;;;;;;59.30;3.20;;;;;;;;;;5053650;28;20482;-90
2022/06/24 00:50:47;;;;;;;59.40;3.00;;;;;;;;;;5053310;28;20483;-90
2022/06/24 00:53:15;;;;;;;58.97;2.60;;;;;;;;;;5053506;28;20434;-89
2022/06/24 00:55:43;;;;;;;60.77;3.10;;;;;;;;;;5053799;28;20456;-89
2022/06/24 00:58:13;;;;;;;58.90;3.00;;;;;;;;;;5053461;28;20855;-89
2022/06/24 01:00:42;;;;;;;60.13;2.93;;;;;;;;;;5053601;28;20464;-88
2022/06/24 01:03:14;;;;;;;59.87;3.43;;;;;;;;;;5053998;28;20456;-89
2022/06/24 01:05:50;;;;;;;59.30;2.80;;;;;;;;;;5052285;28;20449;-88
2022/06/24 01:08:17;;;;;;;59.10;2.90;;;;;;;;;;5053280;28;20487;-88
2022/06/24 01:10:48;;;;;;;59.60;2.77;;;;;;;;;;5053040;28;20530;-88
2022/06/24 01:13:16;;;;;;;60.00;2.90;;;;;;;;;;5053267;28;20515;-88
2022/06/24 01:15:43;;;;;;;58.80;2.60;;;;;;;;;;5053286;28;20460;-89
2022/06/24 01:18:12;;;;;;;60.37;3.20;;;;;;;;;;5053313;28;20470;-89
2022/06/24 01:20:39;;;;;;;59.90;3.20;;;;;;;;;;5053033;28;20534;-88
2022/06/24 01:23:08;;;;;;;59.27;3.20;;;;;;;;;;5052679;28;20444;-88
2022/06/24 01:25:35;;;;;;;60.40;3.30;;;;;;;;;;5052831;28;20437;-87
2022/06/24 01:28:02;;;;;;;59.10;3.00;;;;;;;;;;5051762;28;20452;-87
2022/06/24 01:30:30;;;;;;;60.53;3.40;;;;;;;;;;5052512;28;20456;-88
2022/06/24 01:32:57;;;;;;;59.67;3.17;;;;;;;;;;5051981;28;20445;-87
2022/06/24 01:35:24;;;;;;;60.67;3.47;;;;;;;;;;5052715;28;20454;-88
2022/06/24 01:37:52;;;;;;;58.63;3.00;;;;;;;;;;5050511;28;20975;-88
2022/06/24 01:40:21;;;;;;;61.57;3.27;;;;;;;;;;5052769;28;20812;-88
2022/06/24 01:42:48;;;;;;;59.37;3.10;;;;;;;;;;5052685;28;20469;-88
2022/06/24 01:45:15;;;;;;;58.67;3.17;;;;;;;;;;5053841;28;20452;-89
2022/06/24 01:47:43;;;;;;;59.20;3.20;;;;;;;;;;5052535;28;20448;-89
2022/06/24 01:50:10;;;;;;;59.60;3.27;;;;;;;;;;5052022;28;20457;-89
2022/06/24 01:52:37;;;;;;;61.40;3.87;;;;;;;;;;5036994;28;20834;-89
2022/06/24 01:55:05;;;;;;;60.10;3.40;;;;;;;;;;5033071;28;20455;-89
2022/06/24 01:57:34;;;;;;;59.30;3.30;;;;;;;;;;5036176;28;20449;-84
2022/06/24 02:00:01;;;;;;;61.00;3.40;;;;;;;;;;5038087;28;20512;-90
2022/06/24 02:02:28;;;;;;;63.10;3.70;;;;;;;;;;5032693;28;20842;-88
2022/06/24 02:04:56;;;;;;;59.27;3.47;;;;;;;;;;5032832;28;20448;-90
2022/06/24 02:07:23;;;;;;;59.43;3.33;;;;;;;;;;5036373;28;20450;-91
2022/06/24 02:15:22;;;;;;;59.77;3.00;;;;;;;;;;5053076;28;20412;-86
2022/06/24 02:17:49;;;;;;;59.40;3.07;;;;;;;;;;5052881;28;20444;-89
2022/06/24 02:20:17;;;;;;;61.57;3.70;;;;;;;;;;5052801;28;20466;-90
2022/06/24 02:22:44;;;;;;;62.67;4.40;;;;;;;;;;5053006;28;20441;-90
2022/06/24 02:25:11;;;;;;;59.90;3.73;;;;;;;;;;5052528;28;20525;-91
2022/06/24 02:27:40;;;;;;;60.93;3.70;;;;;;;;;;5052032;28;20460;-90
2022/06/24 02:30:08;;;;;;;60.17;3.33;;;;;;;;;;5052531;28;20791;-90
2022/06/24 02:32:35;;;;;;;60.27;3.73;;;;;;;;;;5052302;28;20530;-90
2022/06/24 02:35:03;;;;;;;60.57;3.03;;;;;;;;;;5052592;28;20446;-91
2022/06/24 02:37:30;;;;;;;60.10;2.90;;;;;;;;;;5052334;28;20506;-90
2022/06/24 02:40:45;;;;;;;61.07;3.77;;;;;;;;;;5052717;28;20803;-90
2022/06/24 02:42:46;;;;;;;59.77;3.40;;;;;;;;;;5051627;28;20503;-90
2022/06/24 02:45:13;;;;;;;61.07;3.50;;;;;;;;;;5052690;28;20521;-90
2022/06/24 02:47:41;;;;;;;59.40;3.20;;;;;;;;;;5051670;28;20490;-90
2022/06/24 02:50:08;;;;;;;60.07;3.53;;;;;;;;;;5052421;28;20456;-90
2022/06/24 02:52:49;;;;;;;63.40;3.17;;;;;;;;;;5051997;28;20539;-90
2022/06/24 02:55:17;;;;;;;58.77;2.90;;;;;;;;;;5052251;28;20463;-90
2022/06/24 02:57:44;;;;;;;60.30;3.10;;;;;;;;;;5052399;28;20943;-90
2022/06/24 03:00:14;;;;;;;59.57;3.23;;;;;;;;;;5052095;28;20480;-90
2022/06/24 03:02:41;;;;;;;60.27;3.33;;;;;;;;;;5055036;28;20448;-91
2022/06/24 03:05:10;;;;;;;66.73;3.80;;;;;;;;;;5055749;28;20834;-90
2022/06/24 03:07:37;;;;;;;60.10;3.17;;;;;;;;;;5055331;28;20513;-91
2022/06/24 03:10:05;;;;;;;59.37;3.20;;;;;;;;;;5055431;28;20460;-90
2022/06/24 03:12:32;;;;;;;60.10;3.60;;;;;;;;;;5055654;28;20487;-90
2022/06/24 03:14:59;;;;;;;59.40;3.30;;;;;;;;;;5054425;28;20863;-91
2022/06/24 03:17:28;;;;;;;64.07;3.63;;;;;;;;;;5055510;28;20862;-91
2022/06/24 03:19:55;;;;;;;60.80;3.47;;;;;;;;;;5055624;28;20842;-90
2022/06/24 03:22:23;;;;;;;59.30;3.23;;;;;;;;;;5055826;28;20479;-90
2022/06/24 03:24:50;;;;;;;60.90;3.50;;;;;;;;;;5055421;28;20433;-90
2022/06/24 03:27:17;;;;;;;61.13;3.60;;;;;;;;;;5055404;28;20939;-90
2022/06/24 03:29:45;;;;;;;59.60;3.20;;;;;;;;;;5055142;28;20448;-90
2022/06/24 03:32:12;;;;;;;59.50;3.37;;;;;;;;;;5055449;28;20487;-90
2022/06/24 03:34:41;;;;;;;58.90;3.20;;;;;;;;;;5055009;28;20779;-90
2022/06/24 03:37:08;;;;;;;61.80;3.50;;;;;;;;;;5054868;28;20926;-90
2022/06/24 03:39:36;;;;;;;61.37;3.83;;;;;;;;;;5055601;28;20809;-90
2022/06/24 03:42:04;;;;;;;60.37;3.90;;;;;;;;;;5055243;28;20498;-90
2022/06/24 03:44:31;;;;;;;59.37;3.57;;;;;;;;;;5055477;28;21129;-90
2022/06/24 03:46:59;;;;;;;58.87;3.30;;;;;;;;;;5055443;28;20506;-90
2022/06/24 03:49:26;;;;;;;60.00;3.40;;;;;;;;;;5055224;28;20444;-90
2022/06/24 03:51:54;;;;;;;60.43;3.47;;;;;;;;;;5055189;28;20530;-89
2022/06/24 03:54:22;;;;;;;59.33;3.63;;;;;;;;;;5055406;28;20435;-89
2022/06/24 03:56:49;;;;;;;59.50;3.53;;;;;;;;;;5055471;28;20444;-89
2022/06/24 03:59:16;;;;;;;60.30;3.23;;;;;;;;;;5056714;28;20456;-90
2022/06/24 04:01:44;;;;;;;59.67;3.60;;;;;;;;;;5068520;28;20499;-89
2022/06/24 04:04:11;;;;;;;61.10;3.80;;;;;;;;;;5056559;28;20440;-89
2022/06/24 04:06:39;;;;;;;58.77;3.30;;;;;;;;;;5056103;28;20442;-90
2022/06/24 04:09:07;;;;;;;59.90;3.47;;;;;;;;;;5055547;28;20443;-89
2022/06/24 04:11:35;;;;;;;59.60;3.70;;;;;;;;;;5054756;28;20477;-89
2022/06/24 04:14:02;;;;;;;60.20;3.60;;;;;;;;;;5054083;28;20437;-89
2022/06/24 04:16:30;;;;;;;62.20;3.43;;;;;;;;;;5055152;28;20934;-89
2022/06/24 04:18:57;;;;;;;60.37;3.87;;;;;;;;;;5054648;28;20440;-89
2022/06/24 04:21:25;;;;;;;59.87;3.37;;;;;;;;;;5054560;28;20837;-87
2022/06/24 04:23:58;;;;;;;60.07;3.23;;;;;;;;;;5054724;28;20520;-88
2022/06/24 04:26:27;;;;;;;59.43;3.23;;;;;;;;;;5054503;28;20420;-89
2022/06/24 04:28:54;;;;;;;59.23;3.30;;;;;;;;;;5054564;28;20444;-89
2022/06/24 04:31:22;;;;;;;59.70;3.13;;;;;;;;;;5054342;28;20992;-90
2022/06/24 04:33:49;;;;;;;59.07;3.23;;;;;;;;;;5054401;28;20451;-88
2022/06/24 04:36:17;;;;;;;59.20;3.43;;;;;;;;;;5054297;28;20498;-89
2022/06/24 04:38:44;;;;;;;65.40;4.03;;;;;;;;;;5054374;28;20847;-89
2022/06/24 04:41:12;;;;;;;60.60;3.17;;;;;;;;;;5054148;28;20467;-90
2022/06/24 04:43:41;;;;;;;60.10;3.50;;;;;;;;;;5054155;28;20889;-89
2022/06/24 04:46:08;;;;;;;59.17;3.53;;;;;;;;;;5054113;28;20498;-90
2022/06/24 04:48:36;;;;;;;60.27;3.73;;;;;;;;;;5054488;28;20514;-89
2022/06/24 04:51:03;;;;;;;59.77;3.33;;;;;;;;;;5053940;28;20559;-90
2022/06/24 04:53:30;;;;;;;63.67;3.80;;;;;;;;;;5053951;28;20499;-90
2022/06/24 04:55:58;;;;;;;60.13;4.13;;;;;;;;;;5054480;28;20447;-90
2022/06/24 04:58:26;;;;;;;61.67;3.97;;;;;;;;;;5054064;28;20808;-90
2022/06/24 05:00:55;;;;;;;59.90;3.90;;;;;;;;;;5053661;28;20460;-90
2022/06/24 05:03:22;;;;;;;59.77;3.33;;;;;;;;;;5054052;28;20444;-90
2022/06/24 05:05:49;;;;;;;59.27;3.33;;;;;;;;;;5053760;28;20437;-90
2022/06/24 05:08:17;;;;;;;60.27;3.90;;;;;;;;;;5053792;28;20978;-90
2022/06/24 05:10:44;;;;;;;61.30;3.67;;;;;;;;;;5053634;28;20526;-89
2022/06/24 05:13:11;;;;;;;62.07;4.30;;;;;;;;;;5053580;28;20475;-89
2022/06/24 05:15:39;;;;;;;60.63;3.80;;;;;;;;;;5053887;28;20985;-90
2022/06/24 05:18:08;;;;;;;61.10;4.00;;;;;;;;;;5053678;28;21008;-89
2022/06/24 05:20:35;;;;;;;60.20;3.60;;;;;;;;;;5053711;28;20890;-89
2022/06/24 05:23:02;;;;;;;64.33;4.23;;;;;;;;;;5053800;28;20463;-88
2022/06/24 05:25:30;;;;;;;59.20;3.83;;;;;;;;;;5053047;28;20448;-87
2022/06/24 05:27:57;;;;;;;60.07;3.50;;;;;;;;;;5053094;28;20487;-88
2022/06/24 05:30:24;;;;;;;59.30;3.33;;;;;;;;;;5053293;28;20480;-88
2022/06/24 05:32:51;;;;;;;64.50;3.60;;;;;;;;;;5053162;28;20526;-88
2022/06/24 05:35:21;;;;;;;60.20;3.93;;;;;;;;;;5054439;28;20456;-88
2022/06/24 05:37:48;;;;;;;59.47;3.27;;;;;;;;;;5053555;28;20978;-88
2022/06/24 05:40:15;;;;;;;59.70;3.40;;;;;;;;;;5052829;28;20599;-86
2022/06/24 05:42:43;;;;;;;61.30;4.00;;;;;;;;;;5053319;28;20461;-88
2022/06/24 05:45:11;;;;;;;59.37;3.40;;;;;;;;;;5053152;28;20499;-87
2022/06/24 05:47:38;;;;;;;61.97;3.63;;;;;;;;;;5052530;28;20445;-86
2022/06/24 05:50:05;;;;;;;59.00;3.17;;;;;;;;;;5052855;28;20437;-86
2022/06/24 05:55:19;;;;;;;61.80;3.70;;;;;;;;;;5052849;28;20915;-85
2022/06/24 05:57:46;;;;;;;59.70;3.97;;;;;;;;;;5052288;28;20484;-86
2022/06/24 06:00:17;;;;;;;60.77;3.47;;;;;;;;;;5052711;28;20493;-85
2022/06/24 06:02:44;;;;;;;59.70;3.20;;;;;;;;;;5052599;28;20481;-86
2022/06/24 06:05:11;;;;;;;59.77;3.03;;;;;;;;;;5052443;28;20473;-85
2022/06/24 06:07:40;;;;;;;59.07;3.10;;;;;;;;;;5052231;28;20434;-86
2022/06/24 06:10:08;;;;;;;59.30;3.60;;;;;;;;;;5052705;28;20988;-86
2022/06/24 06:12:35;;;;;;;59.60;3.60;;;;;;;;;;5052455;28;20479;-85
2022/06/24 06:15:03;;;;;;;62.80;3.70;;;;;;;;;;5052104;28;20966;-85
2022/06/24 06:17:30;;;;;;;59.20;3.40;;;;;;;;;;5052295;28;20495;-84
2022/06/24 06:19:57;;;;;;;58.57;3.10;;;;;;;;;;5053005;28;20941;-85
2022/06/24 06:22:25;;;;;;;60.80;3.77;;;;;;;;;;5055015;28;20851;-84
2022/06/24 06:24:53;;;;;;;59.00;3.40;;;;;;;;;;5052335;28;20861;-85
2022/06/24 06:27:21;;;;;;;60.37;3.73;;;;;;;;;;5052223;28;20853;-85
2022/06/24 06:29:48;;;;;;;62.17;3.60;;;;;;;;;;5052883;28;20481;-85
2022/06/24 06:32:15;;;;;;;65.20;3.50;;;;;;;;;;5051837;28;20944;-85
2022/06/24 06:34:42;;;;;;;61.27;3.37;;;;;;;;;;5052054;28;20442;-86
2022/06/24 06:37:11;;;;;;;59.47;3.20;;;;;;;;;;5054192;28;20471;-84
2022/06/24 06:39:38;;;;;;;59.43;3.30;;;;;;;;;;5056392;28;20463;-85
2022/06/24 06:42:07;;;;;;;59.30;3.40;;;;;;;;;;5055622;28;20521;-85
2022/06/24 06:44:34;;;;;;;60.33;3.97;;;;;;;;;;5056035;28;20489;-85
2022/06/24 06:47:02;;;;;;;61.00;3.43;;;;;;;;;;5056135;28;20461;-84
2022/06/24 06:49:29;;;;;;;59.03;2.90;;;;;;;;;;5055813;28;20475;-87
2022/06/24 06:51:56;;;;;;;60.40;3.77;;;;;;;;;;5056207;28;20903;-85
2022/06/24 06:54:23;;;;;;;60.00;3.10;;;;;;;;;;5055841;28;20877;-85
2022/06/24 06:56:51;;;;;;;61.30;3.50;;;;;;;;;;5055952;28;20857;-85
2022/06/24 06:59:21;;;;;;;58.27;3.00;;;;;;;;;;5056133;28;20861;-85
2022/06/24 07:01:48;;;;;;;60.40;3.03;;;;;;;;;;5057145;28;20520;-86
2022/06/24 07:04:15;;;;;;;59.20;3.57;;;;;;;;;;5058216;28;20447;-86
2022/06/24 07:06:43;;;;;;;59.43;3.43;;;;;;;;;;5056685;28;20445;-85
2022/06/24 07:09:10;;;;;;;59.60;3.67;;;;;;;;;;5056418;28;20527;-86
2022/06/24 07:11:37;;;;;;;63.37;3.87;;;;;;;;;;5057457;28;20473;-84
2022/06/24 07:14:05;;;;;;;59.67;3.90;;;;;;;;;;5056149;28;20503;-85
2022/06/24 07:16:36;;;;;;;60.07;3.63;;;;;;;;;;5055914;28;20444;-86
2022/06/24 07:19:04;;;;;;;62.33;3.23;;;;;;;;;;5055753;28;20428;-85
2022/06/24 07:21:31;;;;;;;60.17;3.20;;;;;;;;;;5056301;28;20559;-86
2022/06/24 07:23:58;;;;;;;59.17;3.17;;;;;;;;;;5056057;28;20514;-86
2022/06/24 07:26:27;;;;;;;59.50;3.13;;;;;;;;;;5056037;28;20436;-87
2022/06/24 07:28:54;;;;;;;61.27;3.53;;;;;;;;;;5055385;28;20436;-87
2022/06/24 07:31:22;;;;;;;60.17;3.20;;;;;;;;;;5055626;28;20469;-86
2022/06/24 07:33:51;;;;;;;59.00;2.83;;;;;;;;;;5055327;28;20482;-85
2022/06/24 07:36:18;;;;;;;60.00;3.40;;;;;;;;;;5055220;28;20452;-86
2022/06/24 07:38:46;;;;;;;59.10;3.13;;;;;;;;;;5055256;28;20915;-86
2022/06/24 07:41:13;;;;;;;60.13;3.30;;;;;;;;;;5055562;28;20464;-86
2022/06/24 07:43:42;;;;;;;60.00;3.33;;;;;;;;;;5055738;28;20440;-86
2022/06/24 07:46:11;;;;;;;59.00;2.90;;;;;;;;;;5055851;28;20476;-87
2022/06/24 07:48:44;;;;;;;61.67;3.67;;;;;;;;;;5054268;28;20456;-87
2022/06/24 07:51:15;;;;;;;61.47;3.63;;;;;;;;;;5055518;28;20448;-87
2022/06/24 07:53:43;;;;;;;59.10;3.20;;;;;;;;;;5055002;28;20476;-85
2022/06/24 07:58:56;;;;;;;59.40;3.23;;;;;;;;;;5055061;28;20446;-87
2022/06/24 08:01:26;;;;;;;59.87;3.20;;;;;;;;;;5055448;28;20457;-88
2022/06/24 08:03:53;;;;;;;59.30;2.83;;;;;;;;;;5055387;28;20452;-87
2022/06/24 08:06:23;;;;;;;59.10;2.87;;;;;;;;;;5055398;28;21013;-87
2022/06/24 08:08:54;;;;;;;58.90;3.13;;;;;;;;;;5054457;28;20420;-84
2022/06/24 08:11:21;;;;;;;59.80;3.20;;;;;;;;;;5055351;28;20502;-89
2022/06/24 08:13:49;;;;;;;58.77;2.90;;;;;;;;;;5054812;28;20591;-84
2022/06/24 08:16:29;;;;;;;60.40;3.10;;;;;;;;;;5055811;28;20445;-88
2022/06/24 08:18:57;;;;;;;62.37;3.30;;;;;;;;;;5055172;28;20486;-90
2022/06/24 08:21:26;;;;;;;58.90;3.43;;;;;;;;;;5055277;28;21045;-88
2022/06/24 08:23:59;;;;;;;58.90;2.83;;;;;;;;;;5054568;28;20476;-88
2022/06/24 08:26:26;;;;;;;58.97;3.20;;;;;;;;;;5054548;28;20420;-86
2022/06/24 08:28:57;;;;;;;59.07;3.03;;;;;;;;;;5053984;28;20523;-85
2022/06/24 08:31:27;;;;;;;59.10;3.20;;;;;;;;;;5054470;28;20448;-87
2022/06/24 08:33:54;;;;;;;59.10;3.10;;;;;;;;;;5054671;28;20476;-87
2022/06/24 08:36:26;;;;;;;61.47;3.40;;;;;;;;;;5054426;28;20435;-86
2022/06/24 08:38:55;;;;;;;60.10;3.00;;;;;;;;;;5054644;28;20514;-85
2022/06/24 08:41:27;;;;;;;60.97;3.17;;;;;;;;;;5058544;28;20452;-84
2022/06/24 08:43:55;;;;;;;58.83;3.00;;;;;;;;;;5061958;28;20509;-86
2022/06/24 08:46:26;;;;;;;60.50;3.30;;;;;;;;;;5059823;28;20443;-87
2022/06/24 08:48:59;;;;;;;58.70;2.87;;;;;;;;;;5068826;28;20483;-85
2022/06/24 08:51:27;;;;;;;59.33;3.07;;;;;;;;;;5054710;28;20867;-87
2022/06/24 08:53:58;;;;;;;58.67;3.17;;;;;;;;;;5054276;28;20472;-87
2022/06/24 08:56:32;;;;;;;58.70;2.87;;;;;;;;;;5053973;28;20472;-87
2022/06/24 08:59:05;;;;;;;59.23;2.90;;;;;;;;;;5053722;28;20424;-85
2022/06/24 09:01:39;;;;;;;58.60;2.67;;;;;;;;;;5054098;28;20514;-88
2022/06/24 09:04:09;;;;;;;59.30;3.07;;;;;;;;;;5054170;28;20460;-87
2022/06/24 09:06:40;;;;;;;59.10;2.60;;;;;;;;;;5054671;28;20445;-85
2022/06/24 09:09:10;;;;;;;58.50;2.40;;;;;;;;;;5053730;28;20439;-87
2022/06/24 09:11:39;;;;;;;58.47;2.60;;;;;;;;;;5053508;28;20470;-88
2022/06/24 09:14:07;;;;;;;58.60;2.40;;;;;;;;;;5052880;28;21387;-87
2022/06/24 09:16:36;;;;;;;59.07;2.67;;;;;;;;;;5033281;28;20961;-86
2022/06/24 09:19:05;;;;;;;59.10;2.70;;;;;;;;;;5033391;28;20438;-86
2022/06/24 09:21:36;;;;;;;60.50;2.87;;;;;;;;;;5033624;28;20476;-86
2022/06/24 09:24:04;;;;;;;60.03;3.20;;;;;;;;;;5033390;28;20460;-85
2022/06/24 09:26:34;;;;;;;58.57;2.80;;;;;;;;;;5033759;28;20451;-87
2022/06/24 09:29:02;;;;;;;60.20;3.03;;;;;;;;;;5033214;28;20435;-86
2022/06/24 09:31:31;;;;;;;59.77;3.10;;;;;;;;;;5044112;28;20481;-87
2022/06/24 09:34:06;;;;;;;58.70;2.90;;;;;;;;;;5053211;28;20474;-87
2022/06/24 09:36:35;;;;;;;58.80;2.70;;;;;;;;;;5053757;28;20429;-86
2022/06/24 09:39:03;;;;;;;60.27;2.97;;;;;;;;;;5052498;28;20911;-86
2022/06/24 09:41:31;;;;;;;65.90;3.27;;;;;;;;;;5053022;28;20500;-86
2022/06/24 09:44:01;;;;;;;60.00;2.93;;;;;;;;;;5052845;28;20438;-86
2022/06/24 09:46:29;;;;;;;59.20;2.80;;;;;;;;;;5052999;28;20445;-86
2022/06/24 09:49:02;;;;;;;60.80;2.97;;;;;;;;;;5052674;28;20455;-90
2022/06/24 09:51:30;;;;;;;61.23;2.97;;;;;;;;;;5052845;28;20456;-86
2022/06/24 09:53:57;;;;;;;59.10;2.90;;;;;;;;;;5052602;28;20485;-84
2022/06/24 09:56:25;;;;;;;59.80;3.20;;;;;;;;;;5052848;28;20463;-88
2022/06/24 10:01:37;;;;;;;59.00;2.90;;;;;;;;;;5052223;28;20451;-87
2022/06/24 10:04:05;;;;;;;62.53;3.23;;;;;;;;;;5052446;28;20498;-84
2022/06/24 10:06:33;;;;;;;59.10;2.90;;;;;;;;;;5052350;28;20525;-83
2022/06/24 10:09:03;;;;;;;59.83;2.70;;;;;;;;;;5052182;28;20923;-84
2022/06/24 10:11:31;;;;;;;60.47;2.67;;;;;;;;;;5051788;28;20471;-85
2022/06/24 10:13:59;;;;;;;58.47;2.87;;;;;;;;;;5052150;28;20480;-84
2022/06/24 10:16:27;;;;;;;61.87;3.10;;;;;;;;;;5052325;28;20494;-85
2022/06/24 10:18:57;;;;;;;58.07;2.60;;;;;;;;;;5052321;28;20464;-86
2022/06/24 10:21:24;;;;;;;58.40;2.83;;;;;;;;;;5052371;28;20487;-85
2022/06/24 10:23:52;;;;;;;58.80;2.90;;;;;;;;;;5052336;28;20444;-85
2022/06/24 10:26:24;;;;;;;59.47;3.40;;;;;;;;;;5052520;28;20467;-85
2022/06/24 10:29:19;;;;;;;59.03;2.80;;;;;;;;;;5052015;28;20456;-85
2022/06/24 10:32:10;;;;;;;59.97;2.90;;;;;;;;;;5051944;28;20540;-85
2022/06/24 10:34:43;;;;;;;66.07;3.17;;;;;;;;;;5051183;28;20567;-85
2022/06/24 10:37:29;;;;;;;59.63;2.90;;;;;;;;;;5051973;28;20515;-84
2022/06/24 10:39:57;;;;;;;58.60;2.77;;;;;;;;;;5051761;28;20413;-85
2022/06/24 10:42:25;;;;;;;58.40;2.90;;;;;;;;;;5051993;28;20997;-85
2022/06/24 10:44:57;;;;;;;58.77;3.10;;;;;;;;;;5052120;28;20444;-85
2022/06/24 10:47:27;;;;;;;61.20;2.80;;;;;;;;;;5051943;28;21272;-85
2022/06/24 10:50:15;;;;;;;59.20;2.50;;;;;;;;;;5051757;28;20476;-84
2022/06/24 10:52:45;;;;;;;60.10;3.43;;;;;;;;;;5051996;28;20501;-86
2022/06/24 10:55:43;;;;;;;61.37;2.53;;;;;;;;;;5051753;28;20479;-86
2022/06/24 10:58:11;;;;;;;59.57;2.63;;;;;;;;;;5010655;28;20508;-84
2022/06/24 11:00:43;;;;;;;59.10;2.87;;;;;;;;;;5043194;28;21005;-86
2022/06/24 11:03:14;;;;;;;58.70;2.80;;;;;;;;;;5051751;28;20521;-88
2022/06/24 11:05:44;;;;;;;62.77;3.10;;;;;;;;;;5050207;28;20459;-85
2022/06/24 11:08:12;;;;;;;58.27;2.87;;;;;;;;;;5058872;28;20433;-86
2022/06/24 11:10:39;;;;;;;59.40;3.00;;;;;;;;;;5053155;28;20476;-85
2022/06/24 11:13:06;;;;;;;58.57;2.63;;;;;;;;;;5051550;28;20487;-86
2022/06/24 11:15:34;;;;;;;58.67;2.50;;;;;;;;;;5051533;28;20531;-86
2022/06/24 11:18:06;;;;;;;58.93;2.67;;;;;;;;;;5051456;28;20460;-87
2022/06/24 11:20:36;;;;;;;58.83;2.57;;;;;;;;;;5051534;28;20874;-85
2022/06/24 11:23:07;;;;;;;58.57;2.83;;;;;;;;;;5053379;28;20432;-86
2022/06/24 11:25:35;;;;;;;60.50;3.00;;;;;;;;;;5055224;28;20482;-86
2022/06/24 11:28:02;;;;;;;60.90;3.20;;;;;;;;;;5054695;28;20502;-86
2022/06/24 11:30:30;;;;;;;58.53;2.90;;;;;;;;;;5054920;28;20448;-87
2022/06/24 11:32:58;;;;;;;58.53;2.77;;;;;;;;;;5055267;28;20436;-86
2022/06/24 11:35:25;;;;;;;58.80;2.63;;;;;;;;;;5054804;28;20472;-87
2022/06/24 11:37:56;;;;;;;60.83;3.40;;;;;;;;;;5053144;28;20456;-86
2022/06/24 11:40:25;;;;;;;59.70;3.13;;;;;;;;;;5055406;28;20541;-86
2022/06/24 11:42:53;;;;;;;59.60;3.57;;;;;;;;;;5054845;28;20475;-86
2022/06/24 11:45:36;;;;;;;61.87;3.10;;;;;;;;;;5054897;28;20444;-86
2022/06/24 11:48:03;;;;;;;59.03;3.17;;;;;;;;;;5052860;28;20451;-86
2022/06/24 11:50:31;;;;;;;59.50;3.13;;;;;;;;;;5054546;28;20506;-87
2022/06/24 11:52:58;;;;;;;59.20;2.97;;;;;;;;;;5054323;28;20451;-87
2022/06/24 11:55:29;;;;;;;59.07;3.10;;;;;;;;;;5054807;28;20586;-86
2022/06/24 11:57:57;;;;;;;58.90;3.43;;;;;;;;;;5053111;28;20444;-86
2022/06/24 12:00:25;;;;;;;58.97;2.87;;;;;;;;;;5054647;28;21060;-84
2022/06/24 12:02:53;;;;;;;60.13;3.10;;;;;;;;;;5054163;28;20476;-85
2022/06/24 12:05:22;;;;;;;60.07;3.10;;;;;;;;;;5054229;28;20503;-85
2022/06/24 12:07:50;;;;;;;58.63;2.90;;;;;;;;;;5053376;28;20439;-84
2022/06/24 12:10:17;;;;;;;61.27;3.33;;;;;;;;;;5054029;28;20457;-84
2022/06/24 12:12:57;;;;;;;59.60;3.50;;;;;;;;;;5054047;28;20493;-85
2022/06/24 12:15:25;;;;;;;63.33;4.33;;;;;;;;;;5054833;28;21008;-89
2022/06/24 12:17:53;;;;;;;62.90;4.97;;;;;;;;;;5054514;28;20439;-86
2022/06/24 12:20:24;;;;;;;62.90;4.40;;;;;;;;;;5054210;28;20963;-85
2022/06/24 12:23:10;;;;;;;61.40;4.43;;;;;;;;;;5054499;28;20524;-85
2022/06/24 12:25:40;;;;;;;59.90;3.50;;;;;;;;;;5054340;28;20497;-85
2022/06/24 12:28:14;;;;;;;59.93;3.90;;;;;;;;;;5053765;28;20879;-86
2022/06/24 12:30:43;;;;;;;61.17;3.80;;;;;;;;;;5052958;28;20467;-87
2022/06/24 12:33:12;;;;;;;60.53;4.10;;;;;;;;;;5054175;28;20445;-86
2022/06/24 12:35:41;;;;;;;62.93;4.30;;;;;;;;;;5053271;28;20486;-86
2022/06/24 12:38:12;;;;;;;63.57;4.10;;;;;;;;;;5053879;28;20471;-86
2022/06/24 12:40:39;;;;;;;59.73;4.43;;;;;;;;;;5053678;28;20881;-86
2022/06/24 12:43:08;;;;;;;59.87;3.90;;;;;;;;;;5053789;28;20528;-85
2022/06/24 12:45:38;;;;;;;60.00;3.93;;;;;;;;;;5053984;28;20452;-85
2022/06/24 12:50:59;;;;;;;59.60;3.50;;;;;;;;;;5053898;28;20468;-85
2022/06/24 12:53:26;;;;;;;62.50;4.20;;;;;;;;;;5054090;28;20504;-85
2022/06/24 12:55:54;;;;;;;60.67;4.30;;;;;;;;;;5054062;28;20526;-86
2022/06/24 12:58:21;;;;;;;59.50;3.30;;;;;;;;;;5054018;28;20433;-84
2022/06/24 13:00:50;;;;;;;62.90;3.70;;;;;;;;;;5053469;28;20534;-84
2022/06/24 13:03:18;;;;;;;59.80;3.73;;;;;;;;;;5066251;28;20432;-85
2022/06/24 13:05:45;;;;;;;61.90;3.70;;;;;;;;;;5063408;28;20464;-83
2022/06/24 13:08:12;;;;;;;60.13;3.47;;;;;;;;;;5063147;28;20433;-84
2022/06/24 13:10:40;;;;;;;60.77;3.70;;;;;;;;;;5062077;28;20465;-85
2022/06/24 13:13:07;;;;;;;62.47;4.40;;;;;;;;;;5053709;28;20441;-84
2022/06/24 13:15:35;;;;;;;59.50;3.80;;;;;;;;;;5052896;28;20526;-85
2022/06/24 13:18:04;;;;;;;59.40;3.20;;;;;;;;;;5052579;28;20445;-85
2022/06/24 13:20:31;;;;;;;61.33;3.53;;;;;;;;;;5052827;28;20518;-85
2022/06/24 13:22:58;;;;;;;60.60;3.47;;;;;;;;;;5052946;28;20459;-85
2022/06/24 13:25:25;;;;;;;59.40;3.60;;;;;;;;;;5052754;28;20449;-85
2022/06/24 13:27:53;;;;;;;60.90;3.97;;;;;;;;;;5052877;28;20775;-85
2022/06/24 13:30:20;;;;;;;60.67;4.00;;;;;;;;;;5052577;28;21024;-85
2022/06/24 13:32:47;;;;;;;60.00;3.50;;;;;;;;;;5051174;28;20490;-85
2022/06/24 13:35:16;;;;;;;61.30;3.67;;;;;;;;;;5052925;28;20998;-87
2022/06/24 13:37:43;;;;;;;59.10;3.40;;;;;;;;;;5052688;28;20448;-85
2022/06/24 13:40:11;;;;;;;60.47;4.13;;;;;;;;;;5053033;28;20464;-87
2022/06/24 13:42:38;;;;;;;61.33;3.77;;;;;;;;;;5053355;28;20526;-86
2022/06/24 13:45:06;;;;;;;62.20;3.70;;;;;;;;;;5053326;28;20443;-84
2022/06/24 13:47:34;;;;;;;63.90;4.00;;;;;;;;;;5052129;28;20483;-83
2022/06/24 13:50:01;;;;;;;59.70;3.77;;;;;;;;;;5053204;28;20433;-83
2022/06/24 13:52:30;;;;;;;59.80;3.47;;;;;;;;;;5053456;28;20448;-83
2022/06/24 13:54:58;;;;;;;62.30;4.33;;;;;;;;;;5054290;28;20530;-82
2022/06/24 13:57:26;;;;;;;60.07;3.90;;;;;;;;;;5054315;28;20439;-83
2022/06/24 13:59:54;;;;;;;62.37;4.40;;;;;;;;;;5056748;28;20448;-84
2022/06/24 14:02:21;;;;;;;60.30;4.30;;;;;;;;;;5053176;28;20496;-85
2022/06/24 14:04:49;;;;;;;63.33;3.80;;;;;;;;;;5051617;28;20538;-84
2022/06/24 14:07:16;;;;;;;63.30;3.87;;;;;;;;;;5053673;28;20489;-84
2022/06/24 14:09:45;;;;;;;59.90;4.13;;;;;;;;;;5052816;28;20447;-83
2022/06/24 14:12:12;;;;;;;61.97;4.77;;;;;;;;;;5053882;28;20536;-84
2022/06/24 14:14:40;;;;;;;63.03;3.87;;;;;;;;;;5052440;28;20484;-86
2022/06/24 14:17:07;;;;;;;59.30;3.50;;;;;;;;;;5052581;28;20856;-84
2022/06/24 14:19:36;;;;;;;59.57;3.43;;;;;;;;;;5052727;28;20910;-83
2022/06/24 14:22:03;;;;;;;61.17;4.10;;;;;;;;;;5053081;28;20968;-84
2022/06/24 14:24:32;;;;;;;59.17;3.90;;;;;;;;;;5052233;28;20510;-85
2022/06/24 14:27:01;;;;;;;59.27;3.40;;;;;;;;;;5054616;28;20437;-83
2022/06/24 14:29:29;;;;;;;59.10;3.57;;;;;;;;;;5054247;28;20448;-84
2022/06/24 14:31:57;;;;;;;61.00;4.47;;;;;;;;;;5052937;28;20508;-85
2022/06/24 14:34:24;;;;;;;60.40;4.03;;;;;;;;;;5052079;28;20446;-85
2022/06/24 14:36:52;;;;;;;59.77;3.83;;;;;;;;;;5051057;28;20855;-84
2022/06/24 14:42:06;;;;;;;59.03;3.70;;;;;;;;;;5052241;28;20441;-85
2022/06/24 14:44:33;;;;;;;61.23;3.57;;;;;;;;;;5052151;28;20946;-84
2022/06/24 14:47:01;;;;;;;59.57;3.60;;;;;;;;;;5051741;28;20435;-84
2022/06/24 14:49:28;;;;;;;61.10;3.70;;;;;;;;;;5052233;28;20486;-84
2022/06/24 14:51:56;;;;;;;59.27;3.60;;;;;;;;;;5052713;28;20477;-84
2022/06/24 14:54:23;;;;;;;60.17;4.10;;;;;;;;;;5052314;28;20495;-84
2022/06/24 14:56:50;;;;;;;59.70;3.90;;;;;;;;;;5052677;28;20533;-84
2022/06/24 14:59:19;;;;;;;61.20;3.77;;;;;;;;;;5057453;28;20496;-84